createdAt,value
2022-08-25T00:00:21.973Z,4.38
2022-08-25T00:02:56.199Z,5.00
2022-08-25T00:05:29.309Z,4.38
2022-08-25T00:07:58.534Z,5.00
2022-08-25T00:10:28.753Z,4.93
2022-08-25T00:12:57.542Z,4.82
2022-08-25T00:15:26.672Z,4.45
2022-08-25T00:17:55.520Z,4.93
2022-08-25T00:20:25.441Z,5.18
2022-08-25T00:22:55.301Z,4.80
2022-08-25T00:25:25.046Z,4.88
2022-08-25T00:27:55.403Z,5.00
2022-08-25T00:30:24.396Z,4.93
2022-08-25T00:32:55.463Z,5.00
2022-08-25T00:35:27.844Z,4.90
2022-08-25T00:37:57.359Z,5.40
2022-08-25T00:40:28.437Z,5.07
2022-08-25T00:42:59.105Z,4.35
2022-08-25T00:45:28.613Z,4.93
2022-08-25T00:48:00.101Z,5.20
2022-08-25T00:50:30.422Z,5.00
2022-08-25T00:53:03.330Z,4.90
2022-08-25T00:55:35.617Z,4.55
2022-08-25T00:58:11.699Z,5.30
2022-08-25T01:00:44.345Z,5.15
2022-08-25T01:03:16.237Z,5.13
2022-08-25T01:05:46.698Z,4.78
2022-08-25T01:08:21.245Z,5.03
2022-08-25T01:10:51.370Z,5.07
2022-08-25T01:13:27.732Z,4.65
2022-08-25T01:15:58.987Z,4.70
2022-08-25T01:18:28.498Z,4.93
2022-08-25T01:21:00.893Z,5.18
2022-08-25T01:23:29.843Z,5.73
2022-08-25T01:26:04.922Z,5.32
2022-08-25T01:28:33.966Z,4.80
2022-08-25T01:31:03.026Z,4.82
2022-08-25T01:33:32.191Z,5.25
2022-08-25T01:36:03.349Z,4.50
2022-08-25T01:38:32.411Z,5.18
2022-08-25T01:41:01.228Z,5.35
2022-08-25T01:43:37.158Z,4.85
2022-08-25T01:46:06.807Z,5.80
2022-08-25T01:48:35.817Z,5.78
2022-08-25T01:51:06.015Z,5.07
2022-08-25T01:53:34.876Z,5.38
2022-08-25T01:56:11.602Z,5.40
2022-08-25T01:58:43.141Z,5.35
2022-08-25T02:01:16.051Z,4.82
2022-08-25T02:03:47.997Z,4.80
2022-08-25T02:06:21.866Z,4.80
2022-08-25T02:09:01.208Z,4.88
2022-08-25T02:11:30.129Z,4.63
2022-08-25T02:13:59.221Z,5.93
2022-08-25T02:16:31.883Z,5.32
2022-08-25T02:19:01.772Z,5.45
2022-08-25T02:21:32.577Z,5.18
2022-08-25T02:24:01.395Z,5.75
2022-08-25T02:26:30.275Z,5.45
2022-08-25T02:28:59.035Z,5.63
2022-08-25T02:31:28.577Z,5.18
2022-08-25T02:33:58.041Z,5.07
2022-08-25T02:36:27.108Z,4.93
2022-08-25T02:38:57.480Z,5.10
2022-08-25T02:41:31.375Z,5.57
2022-08-25T02:44:01.751Z,5.70
2022-08-25T02:46:31.215Z,5.40
2022-08-25T02:49:00.416Z,5.47
2022-08-25T02:51:30.559Z,5.82
2022-08-25T02:54:03.230Z,4.90
2022-08-25T02:56:33.449Z,5.18
2022-08-25T02:59:03.098Z,6.13
2022-08-25T03:01:33.438Z,5.20
2022-08-25T03:04:02.980Z,4.75
2022-08-25T03:06:31.872Z,5.05
2022-08-25T03:09:02.668Z,5.10
2022-08-25T03:11:31.907Z,5.60
2022-08-25T03:14:00.784Z,5.30
2022-08-25T03:16:29.587Z,6.32
2022-08-25T03:18:59.517Z,5.43
2022-08-25T03:21:30.459Z,5.30
2022-08-25T03:24:01.556Z,5.57
2022-08-25T03:26:47.635Z,5.78
2022-08-25T03:29:16.419Z,5.95
2022-08-25T03:31:45.864Z,5.43
2022-08-25T03:34:16.861Z,5.38
2022-08-25T03:36:47.142Z,5.15
2022-08-25T03:39:17.818Z,5.53
2022-08-25T03:41:47.308Z,5.07
2022-08-25T03:44:16.894Z,5.28
2022-08-25T03:46:47.639Z,5.50
2022-08-25T03:49:19.095Z,5.40
2022-08-25T03:51:50.318Z,5.70
2022-08-25T03:54:23.322Z,6.38
2022-08-25T03:56:52.341Z,5.90
2022-08-25T03:59:21.461Z,6.00
2022-08-25T04:01:54.991Z,5.72
2022-08-25T04:04:24.675Z,5.18
2022-08-25T04:06:54.038Z,5.90
2022-08-25T04:09:24.294Z,5.60
2022-08-25T04:11:53.683Z,5.90
2022-08-25T04:14:24.688Z,5.60
2022-08-25T04:16:54.237Z,5.22
2022-08-25T04:19:23.531Z,5.80
2022-08-25T04:21:54.523Z,5.35
2022-08-25T04:26:55.936Z,5.93
2022-08-25T04:29:26.627Z,5.32
2022-08-25T04:31:56.716Z,5.47
2022-08-25T04:34:29.419Z,6.60
2022-08-25T04:37:01.604Z,6.30
2022-08-25T04:39:32.359Z,6.28
2022-08-25T04:42:01.467Z,5.68
2022-08-25T04:44:31.973Z,5.85
2022-08-25T04:47:02.660Z,5.10
2022-08-25T04:49:32.238Z,5.72
2022-08-25T04:52:01.120Z,7.05
2022-08-25T04:54:36.040Z,6.25
2022-08-25T04:57:07.081Z,5.88
2022-08-25T04:59:36.006Z,6.13
2022-08-25T05:02:06.717Z,5.70
2022-08-25T05:04:37.582Z,6.03
2022-08-25T05:07:06.710Z,7.13
2022-08-25T05:09:37.850Z,6.50
2022-08-25T05:12:07.164Z,5.82
2022-08-25T05:14:36.141Z,5.70
2022-08-25T05:17:05.042Z,6.20
2022-08-25T05:19:33.962Z,6.22
2022-08-25T05:22:02.771Z,5.70
2022-08-25T05:24:31.762Z,5.68
2022-08-25T05:27:03.302Z,5.75
2022-08-25T05:29:32.147Z,6.25
2022-08-25T05:32:01.004Z,5.95
2022-08-25T05:34:30.276Z,6.38
2022-08-25T05:37:00.267Z,6.88
2022-08-25T05:39:32.662Z,6.20
2022-08-25T05:42:02.746Z,6.57
2022-08-25T05:44:31.687Z,6.85
2022-08-25T05:47:00.498Z,6.80
2022-08-25T05:49:29.491Z,6.78
2022-08-25T05:51:58.271Z,6.80
2022-08-25T05:54:27.188Z,5.95
2022-08-25T05:56:56.471Z,6.47
2022-08-25T05:59:26.675Z,6.70
2022-08-25T06:02:12.814Z,6.53
2022-08-25T06:04:41.632Z,6.22
2022-08-25T06:07:10.665Z,6.40
2022-08-25T06:09:40.026Z,6.30
2022-08-25T06:12:09.919Z,6.07
2022-08-25T06:14:40.097Z,6.30
2022-08-25T06:17:08.931Z,6.03
2022-08-25T06:19:39.770Z,6.90
2022-08-25T06:22:10.254Z,6.15
2022-08-25T06:24:38.986Z,6.85
2022-08-25T06:27:07.668Z,6.95
2022-08-25T06:29:36.559Z,6.55
2022-08-25T06:32:08.971Z,7.68
2022-08-25T06:34:37.743Z,7.20
2022-08-25T06:37:06.914Z,6.80
2022-08-25T06:39:35.703Z,7.03
2022-08-25T06:42:04.611Z,6.90
2022-08-25T06:44:34.081Z,7.30
2022-08-25T06:47:03.020Z,6.70
2022-08-25T06:49:36.235Z,7.20
2022-08-25T06:52:05.898Z,7.55
2022-08-25T06:54:34.684Z,7.93
2022-08-25T06:57:04.623Z,7.55
2022-08-25T06:59:33.595Z,6.75
2022-08-25T07:02:03.201Z,6.57
2022-08-25T07:04:34.706Z,7.57
2022-08-25T07:07:03.748Z,6.70
2022-08-25T07:09:36.306Z,7.10
2022-08-25T07:12:08.805Z,6.72
2022-08-25T07:14:38.031Z,7.00
2022-08-25T07:17:12.443Z,6.80
2022-08-25T07:19:42.978Z,7.18
2022-08-25T07:22:12.844Z,7.18
2022-08-25T07:24:42.595Z,6.57
2022-08-25T07:27:11.568Z,6.93
2022-08-25T07:29:42.624Z,7.28
2022-08-25T07:32:11.863Z,7.20
2022-08-25T07:34:59.806Z,6.57
2022-08-25T07:37:47.935Z,7.03
2022-08-25T07:40:21.348Z,6.90
2022-08-25T07:42:51.769Z,6.72
2022-08-25T07:45:25.579Z,7.25
2022-08-25T07:47:54.604Z,6.90
2022-08-25T07:50:24.879Z,7.07
2022-08-25T07:52:55.205Z,6.63
2022-08-25T07:55:24.824Z,6.28
2022-08-25T07:57:55.992Z,6.25
2022-08-25T08:00:27.939Z,6.88
2022-08-25T08:02:57.782Z,6.70
2022-08-25T08:05:29.473Z,6.28
2022-08-25T08:07:59.585Z,6.40
2022-08-25T08:13:18.808Z,5.82
2022-08-25T08:15:48.814Z,5.93
2022-08-25T08:18:18.387Z,6.97
2022-08-25T08:20:50.114Z,5.90
2022-08-25T08:23:19.014Z,6.22
2022-08-25T08:25:48.262Z,6.25
2022-08-25T08:28:17.227Z,6.25
2022-08-25T08:30:53.014Z,5.88
2022-08-25T08:33:24.808Z,6.55
2022-08-25T08:36:05.041Z,6.35
2022-08-25T08:38:35.019Z,6.93
2022-08-25T08:42:09.774Z,6.13
2022-08-25T08:44:51.577Z,5.97
2022-08-25T08:47:30.203Z,5.78
2022-08-25T08:50:06.704Z,5.65
2022-08-25T08:52:44.547Z,5.10
2022-08-25T08:55:26.532Z,6.22
2022-08-25T08:57:58.483Z,5.68
2022-08-25T09:00:28.891Z,5.68
2022-08-25T09:03:05.458Z,5.68
2022-08-25T09:05:47.200Z,5.60
2022-08-25T09:08:20.533Z,4.90
2022-08-25T09:11:01.624Z,4.93
2022-08-25T09:13:43.666Z,5.05
2022-08-25T09:16:38.991Z,5.65
2022-08-25T09:19:32.084Z,4.88
2022-08-25T09:22:35.927Z,5.18
2022-08-25T09:25:10.461Z,5.18
2022-08-25T09:27:45.592Z,5.15
2022-08-25T09:30:17.047Z,4.60
2022-08-25T09:32:52.325Z,4.82
2022-08-25T09:35:26.198Z,3.58
2022-08-25T09:38:00.241Z,4.35
2022-08-25T09:40:33.894Z,4.70
2022-08-25T09:43:05.757Z,5.25
2022-08-25T09:45:42.326Z,4.70
2022-08-25T09:48:28.389Z,4.63
2022-08-25T09:51:02.552Z,3.90
2022-08-25T09:53:33.853Z,3.65
2022-08-25T09:56:08.139Z,3.78
2022-08-25T09:58:37.208Z,4.18
2022-08-25T10:01:14.385Z,3.40
2022-08-25T10:04:05.058Z,3.75
2022-08-25T10:06:43.842Z,4.20
2022-08-25T10:09:24.839Z,3.45
2022-08-25T10:11:57.956Z,3.95
2022-08-25T10:14:36.636Z,3.80
2022-08-25T10:17:24.762Z,3.35
2022-08-25T10:20:17.426Z,4.45
2022-08-25T10:22:48.343Z,3.08
2022-08-25T10:25:24.602Z,2.55
2022-08-25T10:28:08.786Z,2.92
2022-08-25T10:30:47.738Z,3.45
2022-08-25T10:33:25.965Z,2.72
2022-08-25T10:36:00.328Z,2.53
2022-08-25T10:38:38.708Z,2.80
2022-08-25T10:41:42.669Z,3.20
2022-08-25T10:44:39.976Z,2.80
2022-08-25T10:47:45.269Z,2.70
2022-08-25T10:50:20.388Z,2.05
2022-08-25T10:53:06.036Z,4.18
2022-08-25T10:55:49.027Z,2.92
2022-08-25T10:58:25.909Z,2.25
2022-08-25T11:01:09.823Z,2.83
2022-08-25T11:03:49.348Z,2.80
2022-08-25T11:06:24.950Z,3.00
2022-08-25T11:08:58.788Z,2.88
2022-08-25T11:11:32.939Z,2.53
2022-08-25T11:14:11.053Z,2.22
2022-08-25T11:16:46.178Z,3.10
2022-08-25T11:19:21.833Z,2.50
2022-08-25T11:21:57.873Z,2.88
2022-08-25T11:25:04.120Z,2.35
2022-08-25T11:27:38.205Z,2.90
2022-08-25T11:30:10.397Z,2.17
2022-08-25T11:32:42.061Z,3.35
2022-08-25T11:35:13.612Z,3.33
2022-08-25T11:37:47.792Z,2.85
2022-08-25T11:40:45.558Z,2.53
2022-08-25T11:43:40.631Z,2.85
2022-08-25T11:46:32.704Z,2.90
2022-08-25T11:49:26.755Z,3.05
2022-08-25T11:51:55.666Z,3.53
2022-08-25T11:54:38.846Z,3.20
2022-08-25T11:57:22.596Z,2.78
2022-08-25T12:00:07.139Z,2.75
2022-08-25T12:02:39.327Z,3.17
2022-08-25T12:05:13.110Z,2.70
2022-08-25T12:08:22.892Z,2.60
2022-08-25T12:10:59.012Z,3.40
2022-08-25T12:13:42.602Z,3.10
2022-08-25T12:16:38.919Z,3.15
2022-08-25T12:19:29.595Z,3.30
2022-08-25T12:22:38.934Z,3.65
2022-08-25T12:25:15.618Z,3.70
2022-08-25T12:27:56.887Z,2.90
2022-08-25T12:30:36.768Z,3.10
2022-08-25T12:33:14.698Z,3.70
2022-08-25T12:35:56.479Z,3.20
2022-08-25T12:41:05.427Z,3.05
2022-08-25T12:43:37.880Z,2.88
2022-08-25T12:46:36.795Z,3.28
2022-08-25T12:49:14.402Z,3.10
2022-08-25T12:51:54.276Z,3.78
2022-08-25T12:54:43.603Z,3.17
2022-08-25T12:57:38.141Z,3.30
2022-08-25T13:00:18.927Z,3.30
2022-08-25T13:03:11.043Z,3.33
2022-08-25T13:06:08.999Z,2.83
2022-08-25T13:08:57.931Z,3.13
2022-08-25T13:11:35.233Z,3.17
2022-08-25T13:14:13.537Z,2.58
2022-08-25T13:16:54.630Z,3.28
2022-08-25T13:19:25.447Z,3.05
2022-08-25T13:21:56.812Z,3.13
2022-08-25T13:26:59.901Z,2.70
2022-08-25T13:29:36.951Z,3.00
2022-08-25T13:32:21.532Z,3.35
2022-08-25T13:37:30.532Z,3.22
2022-08-25T13:40:12.022Z,3.63
2022-08-25T13:42:48.975Z,3.70
2022-08-25T13:45:25.082Z,2.92
2022-08-25T13:50:35.096Z,3.28
2022-08-25T13:53:11.340Z,3.60
2022-08-25T13:55:50.914Z,2.97
2022-08-25T13:58:38.658Z,3.60
2022-08-25T14:01:23.253Z,2.88
2022-08-25T14:07:07.369Z,3.05
2022-08-25T14:09:41.918Z,2.72
2022-08-25T14:15:04.882Z,3.00
2022-08-25T14:17:39.955Z,3.42
2022-08-25T14:20:20.687Z,3.10
2022-08-25T14:22:54.689Z,3.50
2022-08-25T14:25:23.643Z,3.47
2022-08-25T14:28:13.707Z,2.80
2022-08-25T14:30:51.793Z,3.40
2022-08-25T14:33:23.616Z,3.10
2022-08-25T14:35:54.974Z,3.17
2022-08-25T14:38:24.049Z,3.20
2022-08-25T14:40:53.836Z,2.80
2022-08-25T14:43:24.012Z,3.00
2022-08-25T14:46:04.996Z,3.20
2022-08-25T14:48:40.557Z,3.10
2022-08-25T14:51:13.171Z,3.00
2022-08-25T14:53:42.485Z,3.60
2022-08-25T14:56:12.206Z,3.00
2022-08-25T14:58:50.788Z,3.33
2022-08-25T15:01:29.474Z,3.05
2022-08-25T15:04:04.729Z,2.97
2022-08-25T15:06:35.525Z,3.10
2022-08-25T15:09:11.696Z,3.70
2022-08-25T15:11:43.631Z,2.80
2022-08-25T15:14:15.703Z,3.50
2022-08-25T15:16:50.461Z,3.35
2022-08-25T15:19:21.727Z,3.03
2022-08-25T15:21:52.728Z,3.05
2022-08-25T15:24:25.713Z,3.55
2022-08-25T15:26:57.013Z,3.33
2022-08-25T15:32:00.199Z,2.83
2022-08-25T15:34:29.281Z,3.00
2022-08-25T15:36:59.053Z,3.33
2022-08-25T15:39:28.458Z,3.10
2022-08-25T15:41:57.405Z,3.40
2022-08-25T15:44:29.698Z,2.90
2022-08-25T15:47:00.810Z,3.25
2022-08-25T15:49:31.187Z,2.97
2022-08-25T15:52:00.398Z,3.40
2022-08-25T15:54:30.975Z,3.45
2022-08-25T15:57:00.698Z,4.10
2022-08-25T15:59:30.750Z,4.40
2022-08-25T16:02:03.288Z,3.75
2022-08-25T16:04:33.289Z,4.78
2022-08-25T16:07:02.147Z,3.97
2022-08-25T16:09:33.124Z,3.90
2022-08-25T16:12:06.737Z,3.42
2022-08-25T16:14:38.569Z,3.78
2022-08-25T16:17:09.168Z,4.38
2022-08-25T16:19:38.384Z,4.32
2022-08-25T16:22:10.902Z,3.63
2022-08-25T16:24:42.122Z,3.78
2022-08-25T16:27:12.174Z,4.35
2022-08-25T16:29:43.884Z,4.10
2022-08-25T16:32:16.102Z,3.87
2022-08-25T16:34:44.992Z,4.43
2022-08-25T16:37:16.481Z,3.67
2022-08-25T16:39:46.301Z,4.53
2022-08-25T16:42:15.340Z,4.50
2022-08-25T16:44:44.790Z,4.50
2022-08-25T16:47:17.655Z,4.50
2022-08-25T16:49:49.800Z,4.75
2022-08-25T16:52:37.781Z,4.25
2022-08-25T16:55:16.547Z,4.80
2022-08-25T16:57:48.164Z,4.38
2022-08-25T17:02:52.082Z,5.40
2022-08-25T17:08:09.864Z,5.95
2022-08-25T17:10:43.665Z,6.20
2022-08-25T17:13:14.055Z,5.45
2022-08-25T17:15:45.215Z,6.07
2022-08-25T17:18:16.208Z,8.27
2022-08-25T17:20:46.117Z,6.07
2022-08-25T17:23:16.412Z,6.03
2022-08-25T17:25:45.362Z,5.43
2022-08-25T17:28:14.160Z,5.72
2022-08-25T17:30:43.550Z,6.72
2022-08-25T17:33:14.341Z,7.05
2022-08-25T17:35:47.611Z,6.03
2022-08-25T17:38:20.866Z,6.15
2022-08-25T17:40:49.902Z,6.70
2022-08-25T17:43:18.908Z,6.88
2022-08-25T17:45:48.275Z,6.50
2022-08-25T17:48:18.607Z,6.47
2022-08-25T17:50:49.443Z,7.40
2022-08-25T17:53:19.563Z,6.55
2022-08-25T17:55:48.906Z,6.60
2022-08-25T17:58:19.150Z,6.97
2022-08-25T18:00:49.587Z,7.82
2022-08-25T18:03:19.576Z,7.72
2022-08-25T18:05:50.493Z,8.00
2022-08-25T18:08:19.656Z,8.15
2022-08-25T18:11:01.742Z,8.10
2022-08-25T18:13:31.768Z,8.10
2022-08-25T18:16:03.206Z,8.38
2022-08-25T18:21:06.806Z,9.18
2022-08-25T18:23:36.001Z,8.20
2022-08-25T18:26:06.755Z,9.38
2022-08-25T18:28:36.465Z,8.50
2022-08-25T18:31:07.547Z,7.97
2022-08-25T18:33:38.195Z,8.27
2022-08-25T18:36:12.881Z,7.80
2022-08-25T18:39:00.192Z,8.63
2022-08-25T18:41:36.696Z,8.88
2022-08-25T18:44:07.482Z,8.98
2022-08-25T18:46:37.175Z,9.00
2022-08-25T18:49:08.644Z,9.60
2022-08-25T18:51:40.159Z,9.93
2022-08-25T18:54:23.120Z,9.55
2022-08-25T18:56:54.793Z,9.50
2022-08-25T18:59:24.355Z,8.80
2022-08-25T19:01:55.137Z,9.50
2022-08-25T19:04:31.279Z,8.98
2022-08-25T19:07:03.477Z,8.88
2022-08-25T19:09:33.657Z,8.82
2022-08-25T19:12:02.595Z,9.20
2022-08-25T19:14:31.777Z,8.25
2022-08-25T19:17:01.119Z,9.13
2022-08-25T19:19:30.193Z,7.63
2022-08-25T19:21:59.517Z,7.63
2022-08-25T19:24:30.074Z,6.95
2022-08-25T19:27:02.439Z,7.35
2022-08-25T19:29:31.720Z,8.98
2022-08-25T19:32:02.720Z,8.88
2022-08-25T19:34:36.184Z,8.70
2022-08-25T19:37:06.965Z,7.53
2022-08-25T19:39:41.665Z,7.38
2022-08-25T19:42:34.826Z,7.93
2022-08-25T19:45:01.172Z,7.57
2022-08-25T19:47:32.202Z,7.50
2022-08-25T19:50:01.538Z,7.63
2022-08-25T19:52:30.668Z,7.70
2022-08-25T19:55:02.881Z,7.72
2022-08-25T19:57:42.901Z,7.78
2022-08-25T20:00:16.656Z,8.15
2022-08-25T20:02:45.917Z,7.93
2022-08-25T20:05:23.671Z,7.35
2022-08-25T20:07:55.145Z,7.13
2022-08-25T20:10:28.017Z,7.45
2022-08-25T20:13:00.806Z,8.05
2022-08-25T20:15:34.342Z,7.63
2022-08-25T20:18:06.549Z,8.32
2022-08-25T20:20:36.363Z,7.93
2022-08-25T20:23:22.892Z,8.68
2022-08-25T20:25:53.145Z,8.15
2022-08-25T20:28:22.125Z,8.50
2022-08-25T20:30:50.943Z,10.88
2022-08-25T20:33:22.615Z,9.00
2022-08-25T20:35:53.166Z,9.97
2022-08-25T20:38:22.510Z,8.10
2022-08-25T20:40:53.209Z,7.88
2022-08-25T20:43:22.141Z,8.10
2022-08-25T20:45:51.040Z,8.57
2022-08-25T20:48:19.881Z,8.20
2022-08-25T20:50:54.332Z,8.25
2022-08-25T20:53:27.124Z,9.50
2022-08-25T20:55:57.797Z,9.80
2022-08-25T20:58:26.954Z,8.32
2022-08-25T21:00:56.498Z,7.95
2022-08-25T21:03:25.420Z,8.93
2022-08-25T21:05:54.397Z,8.00
2022-08-25T21:08:23.828Z,7.60
2022-08-25T21:10:54.718Z,8.32
2022-08-25T21:13:24.847Z,7.82
2022-08-25T21:15:54.535Z,8.13
2022-08-25T21:18:23.414Z,8.05
2022-08-25T21:20:53.017Z,8.50
2022-08-25T21:23:21.959Z,8.23
2022-08-25T21:25:51.783Z,8.75
2022-08-25T21:28:20.715Z,9.13
2022-08-25T21:30:51.450Z,8.10
2022-08-25T21:33:26.345Z,8.80
2022-08-25T21:35:57.169Z,8.50
2022-08-25T21:38:27.267Z,8.68
2022-08-25T21:40:57.223Z,8.25
2022-08-25T21:43:26.622Z,8.40
2022-08-25T21:45:56.744Z,8.82
2022-08-25T21:48:26.216Z,8.95
2022-08-25T21:51:04.536Z,7.97
2022-08-25T21:53:35.623Z,8.70
2022-08-25T21:56:06.155Z,8.60
2022-08-25T21:58:36.391Z,9.27
2022-08-25T22:01:10.977Z,8.55
2022-08-25T22:03:41.066Z,8.00
2022-08-25T22:06:11.675Z,8.82
2022-08-25T22:08:43.718Z,9.50
2022-08-25T22:11:18.550Z,8.73
2022-08-25T22:13:50.410Z,8.85
2022-08-25T22:16:20.880Z,9.07
2022-08-25T22:18:51.471Z,9.55
2022-08-25T22:21:23.229Z,8.63
2022-08-25T22:23:52.072Z,9.18
2022-08-25T22:26:22.065Z,9.25
2022-08-25T22:28:51.333Z,8.82
2022-08-25T22:31:21.492Z,10.05
2022-08-25T22:33:50.803Z,8.48
2022-08-25T22:36:21.661Z,8.93
2022-08-25T22:38:51.328Z,8.85
2022-08-25T22:41:21.682Z,9.32
2022-08-25T22:43:51.796Z,9.63
2022-08-25T22:46:25.702Z,9.13
2022-08-25T22:48:58.436Z,8.73
2022-08-25T22:51:31.631Z,8.85
2022-08-25T22:54:02.101Z,9.05
2022-08-25T22:56:35.650Z,9.27
2022-08-25T22:59:07.967Z,7.70
2022-08-25T23:01:39.752Z,9.27
2022-08-25T23:04:09.032Z,9.60
2022-08-25T23:06:39.645Z,9.00
2022-08-25T23:09:10.866Z,9.07
2022-08-25T23:11:40.154Z,9.35
2022-08-25T23:14:11.166Z,9.32
2022-08-25T23:16:42.899Z,8.95
2022-08-25T23:19:13.985Z,9.23
2022-08-25T23:22:01.675Z,9.38
2022-08-25T23:24:31.083Z,9.45
2022-08-25T23:27:02.282Z,9.40
2022-08-25T23:29:34.267Z,9.30
2022-08-25T23:32:07.396Z,8.93
2022-08-25T23:34:39.505Z,9.57
2022-08-25T23:37:08.792Z,9.32
2022-08-25T23:39:39.284Z,9.18
2022-08-25T23:42:08.913Z,9.55
2022-08-25T23:44:38.272Z,9.15
2022-08-25T23:47:08.402Z,8.93
2022-08-25T23:49:41.136Z,9.65
2022-08-25T23:52:09.913Z,8.73
2022-08-25T23:54:39.390Z,9.18
2022-08-25T23:57:08.823Z,9.18
2022-08-25T23:59:38.506Z,9.10
